Terminal Aerodrome Forecast
Issued by NWS

Home | Current Version | Previous Version | Text Only | Print | Product List | Glossary On
Versions: 1 2 3 4 5 6 7 8 9 10 11 12 13 14 15 16 17 18 19
000
FTUS44 KBMX 231100
TAFMGM
TAF
KMGM 231128Z 2312/2412 00000KT 6SM BR SCT001
     FM231400 22004KT P6SM SCT020 SCT035
     FM231800 24005KT P6SM VCTS BKN040CB
     FM240000 25003KT P6SM BKN250
     FM240900 25002KT 5SM BR FEW250=

USA.gov is the U.S. government's official web portal to all federal, state and local government web resources and services.